Warning: Javascript must be enabled to use all the features on this page!


Page Loading - Please Wait...

* We've detected you're using a mobile device. Find our Next Generation Station Page here.
Click to hideNews Bulletins
  • Attention current WaterAlert users: NextGen WaterAlert is replacing Legacy WaterAlert. You must take action before 9/30/2022 to retain your alerts. Read more.
  • Explore the NEW USGS National Water Dashboard interactive map to access real-time water data from over 13,500 stations nationwide.
  • Full News RSS icon

Peak Streamflow for the Nation

USGS 06775900 Dismal River near Thedford, Nebr.

Thomas County, Nebraska
Hydrologic Unit Code 10210002
Latitude  41°46'43", Longitude 100°31'31" NAD83
Drainage area 966  square miles
Contributing drainage area 30.00  square miles
Gage datum 2,798.18 feet above NAVD88
Output formats
Table
Graph
Tab-separated file
peakfq (watstore) format
Reselect output format
Water
Year
Date Gage
Height
(feet)
Stream-
flow
(cfs)
1967 1967-07-28 2.73 335
1968 1968-05-06 2.32 290
1969 1969-01-02 2.022 266
1970 1970-06-12 2.08 246
1971 1971-04-19 2.47 313
1972 1972-07-28 2.37 302
1973 1973-03-26 2.142 289
1974 1974-05-21 2.02 248
1975 1975-07-31 2.23 298
1976 1976-07-13 2.19 304
1977 1977-05-07 2.27 321
1978 1978-07-21 2.14 287
1979 1979-07-28 2.06 268
1980 1980-06-16 2.332 311
1981 1981-08-24 2.01 270
1982 1982-05-13 1.96 285
1983 1983-08-23 3.83 1,160
1984 1984-07-11 2.142 407
1985 1985-07-29 1.91 313
1986 1986-04-04 1.82 347
1987 1987-05-04 1.94 368
1988 1988-07-18 3.40 1,090
1989 1989-07-30 2.01 395
1990 1990-08-12 1.72 299
1991 1991-08-08 1.72 323
1992 1992-07-02 2.06 413
1993 1993-07-08 1.80 329
1994 1994-07-07 1.85 381
1995 1995-05-27 1.57 360
1996 1996-07-30 1.66 388
1997 1997-06-03 1.282 293
1998 1998-07-30 1.46 367
1999 1999-07-20 1.42 388
2000 2000-06-30 1.23 333
2001 2000-10-29 1.16 310
2002 2001-11-24 0.82 234
2003 2003-05-08 1.66 314
2004 2004-05-23 2.036 450
2005 2005-04-21 1.63 331
2006 2006-09-22 1.62 318
2007 2007-09-28 1.76 347
2008 2008-06-05 2.06 460
2009 2008-10-13 1.63 306
2010 2010-06-11 2.34 541
2011 2011-06-20 1.76 350
2012 2011-10-08 1.35 272
2013 2013-06-16 1.49 300
2014 2014-06-10 1.45 297
2015 2015-06-22 1.31 313
2016 2016-06-12 1.15 335
2017 2017-08-26 1.20 345
2018 2018-09-20 0.87 290
2019 2019-09-12 0.722 326
2020 2020-07-30 2.706 319
2021 2021-09-30 2.67 340
?
  Peak Gage-Height Qualification Codes.